sensor_id;sensor_type;location;lat;lon;timestamp;temperature;humidity
27226;DHT22;14732;51.074;3.788;2023-04-28T00:01:47;12.30;99.90
27226;DHT22;14732;51.074;3.788;2023-04-28T00:04:13;12.30;99.90
27226;DHT22;14732;51.074;3.788;2023-04-28T00:06:39;12.40;99.90
27226;DHT22;14732;51.074;3.788;2023-04-28T00:09:05;12.30;99.90
27226;DHT22;14732;51.074;3.788;2023-04-28T00:11:35;12.00;99.90
27226;DHT22;14732;51.074;3.788;2023-04-28T00:14:01;11.90;99.90
27226;DHT22;14732;51.074;3.788;2023-04-28T00:16:27;11.90;99.90
27226;DHT22;14732;51.074;3.788;2023-04-28T00:18:52;11.90;99.90
27226;DHT22;14732;51.074;3.788;2023-04-28T00:21:18;11.80;99.90
27226;DHT22;14732;51.074;3.788;2023-04-28T00:23:43;11.70;99.90
27226;DHT22;14732;51.074;3.788;2023-04-28T00:26:09;11.60;99.90
27226;DHT22;14732;51.074;3.788;2023-04-28T00:28:36;11.70;99.90
27226;DHT22;14732;51.074;3.788;2023-04-28T00:31:09;11.70;99.90
27226;DHT22;14732;51.074;3.788;2023-04-28T00:33:37;11.80;99.90
27226;DHT22;14732;51.074;3.788;2023-04-28T00:36:03;11.90;99.90
27226;DHT22;14732;51.074;3.788;2023-04-28T00:38:28;11.80;99.90
27226;DHT22;14732;51.074;3.788;2023-04-28T00:40:54;11.80;99.90
27226;DHT22;14732;51.074;3.788;2023-04-28T00:43:20;11.60;99.90
27226;DHT22;14732;51.074;3.788;2023-04-28T00:45:46;11.50;99.90
27226;DHT22;14732;51.074;3.788;2023-04-28T00:48:12;11.60;99.90
27226;DHT22;14732;51.074;3.788;2023-04-28T00:50:38;11.90;99.90
27226;DHT22;14732;51.074;3.788;2023-04-28T00:53:04;11.90;99.90
27226;DHT22;14732;51.074;3.788;2023-04-28T00:55:31;12.20;99.90
27226;DHT22;14732;51.074;3.788;2023-04-28T00:57:58;11.90;99.90
27226;DHT22;14732;51.074;3.788;2023-04-28T01:00:24;11.90;99.90
27226;DHT22;14732;51.074;3.788;2023-04-28T01:02:52;11.80;99.90
27226;DHT22;14732;51.074;3.788;2023-04-28T01:05:18;11.80;99.90
27226;DHT22;14732;51.074;3.788;2023-04-28T01:07:44;11.90;99.90
27226;DHT22;14732;51.074;3.788;2023-04-28T01:10:10;12.00;99.90
27226;DHT22;14732;51.074;3.788;2023-04-28T01:12:35;12.00;99.90
27226;DHT22;14732;51.074;3.788;2023-04-28T01:15:02;11.90;99.90
27226;DHT22;14732;51.074;3.788;2023-04-28T01:17:28;11.90;99.90
27226;DHT22;14732;51.074;3.788;2023-04-28T01:19:53;11.80;99.90
27226;DHT22;14732;51.074;3.788;2023-04-28T01:22:19;11.70;99.90
27226;DHT22;14732;51.074;3.788;2023-04-28T01:24:44;11.80;99.90
27226;DHT22;14732;51.074;3.788;2023-04-28T01:27:10;11.80;99.90
27226;DHT22;14732;51.074;3.788;2023-04-28T01:29:36;11.90;99.90
27226;DHT22;14732;51.074;3.788;2023-04-28T01:32:02;11.60;99.90
27226;DHT22;14732;51.074;3.788;2023-04-28T01:34:27;11.40;99.90
27226;DHT22;14732;51.074;3.788;2023-04-28T01:36:53;11.30;99.90
27226;DHT22;14732;51.074;3.788;2023-04-28T01:39:19;11.40;99.90
27226;DHT22;14732;51.074;3.788;2023-04-28T01:41:44;11.40;99.90
27226;DHT22;14732;51.074;3.788;2023-04-28T01:44:10;11.40;99.90
27226;DHT22;14732;51.074;3.788;2023-04-28T01:46:37;11.20;99.90
27226;DHT22;14732;51.074;3.788;2023-04-28T01:49:03;11.20;99.90
27226;DHT22;14732;51.074;3.788;2023-04-28T01:51:29;11.40;99.90
27226;DHT22;14732;51.074;3.788;2023-04-28T01:53:55;11.50;99.90
27226;DHT22;14732;51.074;3.788;2023-04-28T01:56:21;11.40;99.90
27226;DHT22;14732;51.074;3.788;2023-04-28T01:58:47;11.30;99.90
27226;DHT22;14732;51.074;3.788;2023-04-28T02:01:12;11.40;99.90
27226;DHT22;14732;51.074;3.788;2023-04-28T02:03:38;11.70;99.90
27226;DHT22;14732;51.074;3.788;2023-04-28T02:06:04;11.90;99.90
27226;DHT22;14732;51.074;3.788;2023-04-28T02:08:29;12.00;99.90
27226;DHT22;14732;51.074;3.788;2023-04-28T02:10:56;11.80;99.90
27226;DHT22;14732;51.074;3.788;2023-04-28T02:13:22;11.50;99.90
27226;DHT22;14732;51.074;3.788;2023-04-28T02:15:48;11.50;99.90
27226;DHT22;14732;51.074;3.788;2023-04-28T02:18:14;11.50;99.90
27226;DHT22;14732;51.074;3.788;2023-04-28T02:20:40;11.50;99.90
27226;DHT22;14732;51.074;3.788;2023-04-28T02:23:05;11.50;99.90
27226;DHT22;14732;51.074;3.788;2023-04-28T02:25:31;11.40;99.90
27226;DHT22;14732;51.074;3.788;2023-04-28T02:27:57;11.40;99.90
27226;DHT22;14732;51.074;3.788;2023-04-28T02:30:23;11.40;99.90
27226;DHT22;14732;51.074;3.788;2023-04-28T02:32:49;11.30;99.90
27226;DHT22;14732;51.074;3.788;2023-04-28T02:35:15;11.50;99.90
27226;DHT22;14732;51.074;3.788;2023-04-28T02:37:40;11.30;99.90
27226;DHT22;14732;51.074;3.788;2023-04-28T02:40:06;11.40;99.90
27226;DHT22;14732;51.074;3.788;2023-04-28T02:42:32;11.40;99.90
27226;DHT22;14732;51.074;3.788;2023-04-28T02:44:58;11.30;99.90
27226;DHT22;14732;51.074;3.788;2023-04-28T02:47:24;11.30;99.90
27226;DHT22;14732;51.074;3.788;2023-04-28T02:49:49;11.20;99.90
27226;DHT22;14732;51.074;3.788;2023-04-28T02:52:15;11.40;99.90
27226;DHT22;14732;51.074;3.788;2023-04-28T02:54:41;11.30;99.90
27226;DHT22;14732;51.074;3.788;2023-04-28T02:57:06;11.10;99.90
27226;DHT22;14732;51.074;3.788;2023-04-28T02:59:32;11.10;99.90
27226;DHT22;14732;51.074;3.788;2023-04-28T03:01:58;11.00;99.90
27226;DHT22;14732;51.074;3.788;2023-04-28T03:04:24;11.10;99.90
27226;DHT22;14732;51.074;3.788;2023-04-28T03:06:50;11.50;99.90
27226;DHT22;14732;51.074;3.788;2023-04-28T03:09:16;11.70;99.90
27226;DHT22;14732;51.074;3.788;2023-04-28T03:11:41;11.70;99.90
27226;DHT22;14732;51.074;3.788;2023-04-28T03:14:07;11.50;99.90
27226;DHT22;14732;51.074;3.788;2023-04-28T03:16:33;11.40;99.90
27226;DHT22;14732;51.074;3.788;2023-04-28T03:18:58;11.20;99.90
27226;DHT22;14732;51.074;3.788;2023-04-28T03:21:24;10.80;99.90
27226;DHT22;14732;51.074;3.788;2023-04-28T03:23:53;10.90;99.90
27226;DHT22;14732;51.074;3.788;2023-04-28T03:26:19;11.10;99.90
27226;DHT22;14732;51.074;3.788;2023-04-28T03:28:45;11.30;99.90
27226;DHT22;14732;51.074;3.788;2023-04-28T03:31:10;11.40;99.90
27226;DHT22;14732;51.074;3.788;2023-04-28T03:33:36;11.50;99.90
27226;DHT22;14732;51.074;3.788;2023-04-28T03:36:02;11.30;99.90
27226;DHT22;14732;51.074;3.788;2023-04-28T03:38:28;11.00;99.90
27226;DHT22;14732;51.074;3.788;2023-04-28T03:40:53;10.90;99.90
27226;DHT22;14732;51.074;3.788;2023-04-28T03:43:19;11.10;99.90
27226;DHT22;14732;51.074;3.788;2023-04-28T03:45:45;11.40;99.90
27226;DHT22;14732;51.074;3.788;2023-04-28T03:48:11;11.70;99.90
27226;DHT22;14732;51.074;3.788;2023-04-28T03:50:36;11.90;99.90
27226;DHT22;14732;51.074;3.788;2023-04-28T03:53:02;11.90;99.90
27226;DHT22;14732;51.074;3.788;2023-04-28T03:55:29;11.90;99.90
27226;DHT22;14732;51.074;3.788;2023-04-28T03:57:55;11.90;99.90
27226;DHT22;14732;51.074;3.788;2023-04-28T04:00:20;11.40;99.90
27226;DHT22;14732;51.074;3.788;2023-04-28T04:02:46;11.60;99.90
27226;DHT22;14732;51.074;3.788;2023-04-28T04:05:12;11.60;99.90
27226;DHT22;14732;51.074;3.788;2023-04-28T04:07:37;11.70;99.90
27226;DHT22;14732;51.074;3.788;2023-04-28T04:10:03;11.50;99.90
27226;DHT22;14732;51.074;3.788;2023-04-28T04:12:29;11.50;99.90
27226;DHT22;14732;51.074;3.788;2023-04-28T04:14:55;11.50;99.90
27226;DHT22;14732;51.074;3.788;2023-04-28T04:17:20;11.60;99.90
27226;DHT22;14732;51.074;3.788;2023-04-28T04:19:46;11.50;99.90
27226;DHT22;14732;51.074;3.788;2023-04-28T04:22:11;11.60;99.90
27226;DHT22;14732;51.074;3.788;2023-04-28T04:24:37;11.80;99.90
27226;DHT22;14732;51.074;3.788;2023-04-28T04:27:03;11.80;99.90
27226;DHT22;14732;51.074;3.788;2023-04-28T04:29:28;11.70;99.90
27226;DHT22;14732;51.074;3.788;2023-04-28T04:31:54;11.90;99.90
27226;DHT22;14732;51.074;3.788;2023-04-28T04:34:20;12.00;99.90
27226;DHT22;14732;51.074;3.788;2023-04-28T04:36:45;12.20;99.90
27226;DHT22;14732;51.074;3.788;2023-04-28T04:39:11;12.00;99.90
27226;DHT22;14732;51.074;3.788;2023-04-28T04:41:37;12.00;99.90
27226;DHT22;14732;51.074;3.788;2023-04-28T04:44:03;12.10;99.90
27226;DHT22;14732;51.074;3.788;2023-04-28T04:46:30;12.30;99.90
27226;DHT22;14732;51.074;3.788;2023-04-28T04:48:56;12.30;99.90
27226;DHT22;14732;51.074;3.788;2023-04-28T04:51:22;12.20;99.90
27226;DHT22;14732;51.074;3.788;2023-04-28T04:53:47;12.20;99.90
27226;DHT22;14732;51.074;3.788;2023-04-28T04:56:13;12.10;99.90
27226;DHT22;14732;51.074;3.788;2023-04-28T04:58:41;12.10;99.90
27226;DHT22;14732;51.074;3.788;2023-04-28T05:01:07;12.20;99.90
27226;DHT22;14732;51.074;3.788;2023-04-28T05:03:33;12.30;99.90
27226;DHT22;14732;51.074;3.788;2023-04-28T05:05:59;12.30;99.90
27226;DHT22;14732;51.074;3.788;2023-04-28T05:08:25;12.30;99.90
27226;DHT22;14732;51.074;3.788;2023-04-28T05:10:51;12.00;99.90
27226;DHT22;14732;51.074;3.788;2023-04-28T05:13:17;12.10;99.90
27226;DHT22;14732;51.074;3.788;2023-04-28T05:15:42;12.30;99.90
27226;DHT22;14732;51.074;3.788;2023-04-28T05:18:08;12.50;99.90
27226;DHT22;14732;51.074;3.788;2023-04-28T05:20:36;12.50;99.90
27226;DHT22;14732;51.074;3.788;2023-04-28T05:23:02;12.30;99.90
27226;DHT22;14732;51.074;3.788;2023-04-28T05:25:28;12.50;99.90
27226;DHT22;14732;51.074;3.788;2023-04-28T05:27:54;12.40;99.90
27226;DHT22;14732;51.074;3.788;2023-04-28T05:30:20;12.40;99.90
27226;DHT22;14732;51.074;3.788;2023-04-28T05:32:46;12.50;99.90
27226;DHT22;14732;51.074;3.788;2023-04-28T05:35:11;12.50;99.90
27226;DHT22;14732;51.074;3.788;2023-04-28T05:37:38;12.50;99.90
27226;DHT22;14732;51.074;3.788;2023-04-28T05:40:04;12.60;99.90
27226;DHT22;14732;51.074;3.788;2023-04-28T05:42:30;12.80;99.90
27226;DHT22;14732;51.074;3.788;2023-04-28T05:44:56;12.80;99.90
27226;DHT22;14732;51.074;3.788;2023-04-28T05:47:22;12.60;99.90
27226;DHT22;14732;51.074;3.788;2023-04-28T05:49:47;12.70;99.90
27226;DHT22;14732;51.074;3.788;2023-04-28T05:52:13;12.90;99.90
27226;DHT22;14732;51.074;3.788;2023-04-28T05:54:39;13.00;99.90
27226;DHT22;14732;51.074;3.788;2023-04-28T05:57:04;13.10;99.90
27226;DHT22;14732;51.074;3.788;2023-04-28T05:59:30;13.10;99.90
27226;DHT22;14732;51.074;3.788;2023-04-28T06:01:56;13.20;99.90
27226;DHT22;14732;51.074;3.788;2023-04-28T06:04:21;13.30;99.90
27226;DHT22;14732;51.074;3.788;2023-04-28T06:06:47;13.40;99.90
27226;DHT22;14732;51.074;3.788;2023-04-28T06:09:13;13.50;99.90
27226;DHT22;14732;51.074;3.788;2023-04-28T06:11:38;13.70;99.90
27226;DHT22;14732;51.074;3.788;2023-04-28T06:14:04;13.80;99.90
27226;DHT22;14732;51.074;3.788;2023-04-28T06:16:30;14.00;99.90
27226;DHT22;14732;51.074;3.788;2023-04-28T06:18:55;14.10;99.90
27226;DHT22;14732;51.074;3.788;2023-04-28T06:21:21;14.30;99.90
27226;DHT22;14732;51.074;3.788;2023-04-28T06:23:47;14.60;99.90
27226;DHT22;14732;51.074;3.788;2023-04-28T06:26:13;14.80;99.90
27226;DHT22;14732;51.074;3.788;2023-04-28T06:28:38;15.00;99.90
27226;DHT22;14732;51.074;3.788;2023-04-28T06:31:04;14.90;99.90
27226;DHT22;14732;51.074;3.788;2023-04-28T06:33:30;15.00;99.90
27226;DHT22;14732;51.074;3.788;2023-04-28T06:35:55;15.00;99.90
27226;DHT22;14732;51.074;3.788;2023-04-28T06:38:21;14.90;99.90
27226;DHT22;14732;51.074;3.788;2023-04-28T06:40:47;14.90;99.90
27226;DHT22;14732;51.074;3.788;2023-04-28T06:43:12;14.60;99.90
27226;DHT22;14732;51.074;3.788;2023-04-28T06:45:38;14.70;99.90
27226;DHT22;14732;51.074;3.788;2023-04-28T06:48:04;14.90;99.90
27226;DHT22;14732;51.074;3.788;2023-04-28T06:50:30;14.90;99.90
27226;DHT22;14732;51.074;3.788;2023-04-28T06:52:56;15.10;99.90
27226;DHT22;14732;51.074;3.788;2023-04-28T06:55:23;15.20;99.90
27226;DHT22;14732;51.074;3.788;2023-04-28T06:57:49;15.10;99.90
27226;DHT22;14732;51.074;3.788;2023-04-28T07:00:15;15.10;99.90
27226;DHT22;14732;51.074;3.788;2023-04-28T07:02:41;15.20;99.90
27226;DHT22;14732;51.074;3.788;2023-04-28T07:05:07;15.10;99.90
27226;DHT22;14732;51.074;3.788;2023-04-28T07:07:33;15.00;99.90
27226;DHT22;14732;51.074;3.788;2023-04-28T07:09:59;15.00;99.90
27226;DHT22;14732;51.074;3.788;2023-04-28T07:12:26;15.00;99.90
27226;DHT22;14732;51.074;3.788;2023-04-28T07:14:52;15.20;99.90
27226;DHT22;14732;51.074;3.788;2023-04-28T07:17:18;15.50;99.90
27226;DHT22;14732;51.074;3.788;2023-04-28T07:19:43;15.50;99.90
27226;DHT22;14732;51.074;3.788;2023-04-28T07:22:09;15.70;99.90
27226;DHT22;14732;51.074;3.788;2023-04-28T07:24:35;15.70;99.90
27226;DHT22;14732;51.074;3.788;2023-04-28T07:27:01;15.60;99.90
27226;DHT22;14732;51.074;3.788;2023-04-28T07:29:28;15.40;99.90
27226;DHT22;14732;51.074;3.788;2023-04-28T07:31:58;15.10;99.90
27226;DHT22;14732;51.074;3.788;2023-04-28T07:34:24;15.10;99.90
27226;DHT22;14732;51.074;3.788;2023-04-28T07:36:50;15.20;99.90
27226;DHT22;14732;51.074;3.788;2023-04-28T07:39:15;15.30;99.90
27226;DHT22;14732;51.074;3.788;2023-04-28T07:41:41;15.40;99.90
27226;DHT22;14732;51.074;3.788;2023-04-28T07:44:07;15.40;99.90
27226;DHT22;14732;51.074;3.788;2023-04-28T07:46:33;15.30;99.90
27226;DHT22;14732;51.074;3.788;2023-04-28T07:48:59;15.30;99.90
27226;DHT22;14732;51.074;3.788;2023-04-28T07:51:25;15.20;99.90
27226;DHT22;14732;51.074;3.788;2023-04-28T07:53:51;15.10;99.90
27226;DHT22;14732;51.074;3.788;2023-04-28T07:56:17;15.00;99.90
27226;DHT22;14732;51.074;3.788;2023-04-28T07:58:42;15.20;99.90
27226;DHT22;14732;51.074;3.788;2023-04-28T08:01:08;15.40;99.90
27226;DHT22;14732;51.074;3.788;2023-04-28T08:03:34;15.60;99.90
27226;DHT22;14732;51.074;3.788;2023-04-28T08:05:59;15.70;99.90
27226;DHT22;14732;51.074;3.788;2023-04-28T08:08:25;15.90;99.90
27226;DHT22;14732;51.074;3.788;2023-04-28T08:10:51;16.20;99.90
27226;DHT22;14732;51.074;3.788;2023-04-28T08:13:17;16.20;99.90
27226;DHT22;14732;51.074;3.788;2023-04-28T08:15:43;16.40;99.90
27226;DHT22;14732;51.074;3.788;2023-04-28T08:18:09;16.50;99.90
27226;DHT22;14732;51.074;3.788;2023-04-28T08:20:35;17.00;99.90
27226;DHT22;14732;51.074;3.788;2023-04-28T08:23:01;17.10;99.90
27226;DHT22;14732;51.074;3.788;2023-04-28T08:25:26;17.20;99.90
27226;DHT22;14732;51.074;3.788;2023-04-28T08:27:52;16.80;99.90
27226;DHT22;14732;51.074;3.788;2023-04-28T08:30:20;17.20;99.90
27226;DHT22;14732;51.074;3.788;2023-04-28T08:32:46;17.20;99.90
27226;DHT22;14732;51.074;3.788;2023-04-28T08:35:11;17.20;99.90
27226;DHT22;14732;51.074;3.788;2023-04-28T08:37:37;17.20;99.90
27226;DHT22;14732;51.074;3.788;2023-04-28T08:40:03;16.80;99.90
27226;DHT22;14732;51.074;3.788;2023-04-28T08:42:34;16.80;99.90
27226;DHT22;14732;51.074;3.788;2023-04-28T08:45:04;16.70;99.90
27226;DHT22;14732;51.074;3.788;2023-04-28T08:47:35;16.50;99.90
27226;DHT22;14732;51.074;3.788;2023-04-28T08:52:31;16.70;99.90
27226;DHT22;14732;51.074;3.788;2023-04-28T08:54:59;16.80;99.90
27226;DHT22;14732;51.074;3.788;2023-04-28T08:57:26;16.80;99.90
27226;DHT22;14732;51.074;3.788;2023-04-28T08:59:55;16.90;99.90
27226;DHT22;14732;51.074;3.788;2023-04-28T09:02:21;17.00;99.90
27226;DHT22;14732;51.074;3.788;2023-04-28T09:04:47;16.90;99.90
27226;DHT22;14732;51.074;3.788;2023-04-28T09:07:13;16.80;99.90
27226;DHT22;14732;51.074;3.788;2023-04-28T09:09:39;16.50;99.90
27226;DHT22;14732;51.074;3.788;2023-04-28T09:12:06;16.40;99.90
27226;DHT22;14732;51.074;3.788;2023-04-28T09:14:36;16.30;99.90
27226;DHT22;14732;51.074;3.788;2023-04-28T09:17:11;16.20;99.90
27226;DHT22;14732;51.074;3.788;2023-04-28T09:19:38;16.30;99.90
27226;DHT22;14732;51.074;3.788;2023-04-28T09:22:07;16.60;99.90
27226;DHT22;14732;51.074;3.788;2023-04-28T09:27:00;16.70;99.90
27226;DHT22;14732;51.074;3.788;2023-04-28T09:29:27;16.40;99.90
27226;DHT22;14732;51.074;3.788;2023-04-28T09:31:53;16.40;99.90
27226;DHT22;14732;51.074;3.788;2023-04-28T09:34:20;16.50;99.90
27226;DHT22;14732;51.074;3.788;2023-04-28T09:36:46;16.60;99.90
27226;DHT22;14732;51.074;3.788;2023-04-28T09:39:12;16.70;99.90
27226;DHT22;14732;51.074;3.788;2023-04-28T09:41:40;16.70;99.90
27226;DHT22;14732;51.074;3.788;2023-04-28T09:44:10;16.40;99.90
27226;DHT22;14732;51.074;3.788;2023-04-28T09:46:36;16.10;99.90
27226;DHT22;14732;51.074;3.788;2023-04-28T09:49:01;15.90;99.90
27226;DHT22;14732;51.074;3.788;2023-04-28T09:51:27;15.90;99.90
27226;DHT22;14732;51.074;3.788;2023-04-28T09:53:55;15.90;99.90
27226;DHT22;14732;51.074;3.788;2023-04-28T09:56:29;15.90;99.90
27226;DHT22;14732;51.074;3.788;2023-04-28T09:58:59;16.40;99.90
27226;DHT22;14732;51.074;3.788;2023-04-28T10:01:25;16.50;99.90
27226;DHT22;14732;51.074;3.788;2023-04-28T10:03:52;16.50;99.90
27226;DHT22;14732;51.074;3.788;2023-04-28T10:06:19;16.20;99.90
27226;DHT22;14732;51.074;3.788;2023-04-28T10:08:44;16.30;99.90
27226;DHT22;14732;51.074;3.788;2023-04-28T10:11:14;16.50;99.90
27226;DHT22;14732;51.074;3.788;2023-04-28T10:13:41;16.50;99.90
27226;DHT22;14732;51.074;3.788;2023-04-28T10:16:07;16.40;99.90
27226;DHT22;14732;51.074;3.788;2023-04-28T10:18:34;16.50;99.90
27226;DHT22;14732;51.074;3.788;2023-04-28T10:21:02;16.40;99.90
27226;DHT22;14732;51.074;3.788;2023-04-28T10:29:17;15.90;99.90
27226;DHT22;14732;51.074;3.788;2023-04-28T10:32:15;15.70;99.90
27226;DHT22;14732;51.074;3.788;2023-04-28T10:34:41;15.80;99.90
27226;DHT22;14732;51.074;3.788;2023-04-28T10:37:07;15.80;99.90
27226;DHT22;14732;51.074;3.788;2023-04-28T10:39:33;15.70;99.90
27226;DHT22;14732;51.074;3.788;2023-04-28T10:41:59;15.50;99.90
27226;DHT22;14732;51.074;3.788;2023-04-28T10:47:02;15.40;99.90
27226;DHT22;14732;51.074;3.788;2023-04-28T10:55:33;15.80;99.90
27226;DHT22;14732;51.074;3.788;2023-04-28T11:00:46;16.20;99.90
27226;DHT22;14732;51.074;3.788;2023-04-28T11:06:23;16.30;99.90
27226;DHT22;14732;51.074;3.788;2023-04-28T11:12:05;16.30;99.90
27226;DHT22;14732;51.074;3.788;2023-04-28T11:14:33;16.50;99.90
27226;DHT22;14732;51.074;3.788;2023-04-28T11:17:03;16.60;99.90
27226;DHT22;14732;51.074;3.788;2023-04-28T11:22:17;16.70;99.90
27226;DHT22;14732;51.074;3.788;2023-04-28T11:25:02;16.60;99.90
27226;DHT22;14732;51.074;3.788;2023-04-28T11:27:29;16.60;99.90
27226;DHT22;14732;51.074;3.788;2023-04-28T11:29:55;16.70;99.90
27226;DHT22;14732;51.074;3.788;2023-04-28T11:32:29;16.60;99.90
27226;DHT22;14732;51.074;3.788;2023-04-28T11:34:56;16.70;99.90
27226;DHT22;14732;51.074;3.788;2023-04-28T11:37:22;16.80;99.90
27226;DHT22;14732;51.074;3.788;2023-04-28T11:39:48;16.90;99.90
27226;DHT22;14732;51.074;3.788;2023-04-28T11:42:14;17.40;99.90
27226;DHT22;14732;51.074;3.788;2023-04-28T11:44:44;17.40;99.90
27226;DHT22;14732;51.074;3.788;2023-04-28T11:47:13;17.30;99.90
27226;DHT22;14732;51.074;3.788;2023-04-28T11:49:46;17.40;99.90
27226;DHT22;14732;51.074;3.788;2023-04-28T11:52:12;17.40;99.90
27226;DHT22;14732;51.074;3.788;2023-04-28T11:54:38;17.70;99.90
27226;DHT22;14732;51.074;3.788;2023-04-28T11:57:19;17.70;99.90
27226;DHT22;14732;51.074;3.788;2023-04-28T11:59:45;17.70;99.90
27226;DHT22;14732;51.074;3.788;2023-04-28T12:02:11;17.70;99.90
27226;DHT22;14732;51.074;3.788;2023-04-28T12:04:42;17.70;99.90
27226;DHT22;14732;51.074;3.788;2023-04-28T12:07:12;18.00;99.90
27226;DHT22;14732;51.074;3.788;2023-04-28T12:09:39;17.90;99.90
27226;DHT22;14732;51.074;3.788;2023-04-28T12:12:07;17.60;99.90
27226;DHT22;14732;51.074;3.788;2023-04-28T12:14:53;17.40;99.90
27226;DHT22;14732;51.074;3.788;2023-04-28T12:17:30;17.10;99.90
27226;DHT22;14732;51.074;3.788;2023-04-28T12:19:59;17.20;99.90
27226;DHT22;14732;51.074;3.788;2023-04-28T12:22:26;17.20;99.90
27226;DHT22;14732;51.074;3.788;2023-04-28T12:25:21;17.20;99.90
27226;DHT22;14732;51.074;3.788;2023-04-28T12:28:04;17.10;99.90
27226;DHT22;14732;51.074;3.788;2023-04-28T12:30:31;16.90;99.90
27226;DHT22;14732;51.074;3.788;2023-04-28T12:32:57;17.00;99.90
27226;DHT22;14732;51.074;3.788;2023-04-28T12:35:24;17.10;99.90
27226;DHT22;14732;51.074;3.788;2023-04-28T12:37:51;17.10;99.90
27226;DHT22;14732;51.074;3.788;2023-04-28T12:40:18;17.50;99.90
27226;DHT22;14732;51.074;3.788;2023-04-28T12:42:44;17.50;99.90
27226;DHT22;14732;51.074;3.788;2023-04-28T12:45:09;17.40;99.90
27226;DHT22;14732;51.074;3.788;2023-04-28T12:47:36;17.70;99.90
27226;DHT22;14732;51.074;3.788;2023-04-28T12:50:02;17.60;99.90
27226;DHT22;14732;51.074;3.788;2023-04-28T12:52:27;17.70;99.90
27226;DHT22;14732;51.074;3.788;2023-04-28T12:54:53;18.10;99.90
27226;DHT22;14732;51.074;3.788;2023-04-28T12:57:19;17.90;99.90
27226;DHT22;14732;51.074;3.788;2023-04-28T12:59:48;17.60;99.90
27226;DHT22;14732;51.074;3.788;2023-04-28T13:02:14;17.60;99.90
27226;DHT22;14732;51.074;3.788;2023-04-28T13:04:40;17.40;99.90
27226;DHT22;14732;51.074;3.788;2023-04-28T13:07:13;17.60;99.90
27226;DHT22;14732;51.074;3.788;2023-04-28T13:09:40;17.70;99.90
27226;DHT22;14732;51.074;3.788;2023-04-28T13:12:07;17.70;99.90
27226;DHT22;14732;51.074;3.788;2023-04-28T13:14:33;17.60;99.90
27226;DHT22;14732;51.074;3.788;2023-04-28T13:16:58;17.60;99.90
27226;DHT22;14732;51.074;3.788;2023-04-28T13:19:24;17.80;99.90
27226;DHT22;14732;51.074;3.788;2023-04-28T13:21:51;17.80;99.90
27226;DHT22;14732;51.074;3.788;2023-04-28T13:24:18;17.90;99.90
27226;DHT22;14732;51.074;3.788;2023-04-28T13:26:43;18.10;99.90
27226;DHT22;14732;51.074;3.788;2023-04-28T13:29:09;18.30;99.90
27226;DHT22;14732;51.074;3.788;2023-04-28T13:31:35;18.30;99.90
27226;DHT22;14732;51.074;3.788;2023-04-28T13:34:01;18.40;99.90
27226;DHT22;14732;51.074;3.788;2023-04-28T13:36:28;18.30;99.90
27226;DHT22;14732;51.074;3.788;2023-04-28T13:38:54;18.60;99.90
27226;DHT22;14732;51.074;3.788;2023-04-28T13:41:20;18.50;99.90
27226;DHT22;14732;51.074;3.788;2023-04-28T13:43:46;18.30;99.90
27226;DHT22;14732;51.074;3.788;2023-04-28T13:46:12;18.80;99.90
27226;DHT22;14732;51.074;3.788;2023-04-28T13:48:38;18.80;99.90
27226;DHT22;14732;51.074;3.788;2023-04-28T13:51:05;18.80;99.90
27226;DHT22;14732;51.074;3.788;2023-04-28T13:53:31;18.80;99.90
27226;DHT22;14732;51.074;3.788;2023-04-28T13:55:57;19.20;99.90
27226;DHT22;14732;51.074;3.788;2023-04-28T13:58:27;19.20;99.90
27226;DHT22;14732;51.074;3.788;2023-04-28T14:00:54;19.10;99.90
27226;DHT22;14732;51.074;3.788;2023-04-28T14:03:20;18.90;99.90
27226;DHT22;14732;51.074;3.788;2023-04-28T14:05:56;18.50;99.90
27226;DHT22;14732;51.074;3.788;2023-04-28T14:08:23;18.60;99.90
27226;DHT22;14732;51.074;3.788;2023-04-28T14:10:50;18.60;99.90
27226;DHT22;14732;51.074;3.788;2023-04-28T14:13:16;18.50;99.90
27226;DHT22;14732;51.074;3.788;2023-04-28T14:15:42;18.60;99.90
27226;DHT22;14732;51.074;3.788;2023-04-28T14:18:10;18.60;99.90
27226;DHT22;14732;51.074;3.788;2023-04-28T14:20:36;18.40;99.90
27226;DHT22;14732;51.074;3.788;2023-04-28T14:23:02;18.70;99.90
27226;DHT22;14732;51.074;3.788;2023-04-28T14:25:27;18.80;99.90
27226;DHT22;14732;51.074;3.788;2023-04-28T14:27:53;19.00;99.90
27226;DHT22;14732;51.074;3.788;2023-04-28T14:30:20;18.60;99.90
27226;DHT22;14732;51.074;3.788;2023-04-28T14:32:46;18.50;99.90
27226;DHT22;14732;51.074;3.788;2023-04-28T14:35:13;18.40;99.90
27226;DHT22;14732;51.074;3.788;2023-04-28T14:37:39;18.70;99.90
27226;DHT22;14732;51.074;3.788;2023-04-28T14:40:06;18.60;99.90
27226;DHT22;14732;51.074;3.788;2023-04-28T14:42:33;18.60;99.90
27226;DHT22;14732;51.074;3.788;2023-04-28T14:45:01;18.70;99.90
27226;DHT22;14732;51.074;3.788;2023-04-28T14:47:27;19.00;99.90
27226;DHT22;14732;51.074;3.788;2023-04-28T14:49:53;18.80;99.90
27226;DHT22;14732;51.074;3.788;2023-04-28T14:52:20;18.50;99.90
27226;DHT22;14732;51.074;3.788;2023-04-28T14:54:47;18.40;99.90
27226;DHT22;14732;51.074;3.788;2023-04-28T14:57:13;18.20;99.90
27226;DHT22;14732;51.074;3.788;2023-04-28T14:59:38;18.10;99.90
27226;DHT22;14732;51.074;3.788;2023-04-28T15:02:05;18.20;99.90
27226;DHT22;14732;51.074;3.788;2023-04-28T15:04:32;18.10;99.90
27226;DHT22;14732;51.074;3.788;2023-04-28T15:06:57;17.90;99.90
27226;DHT22;14732;51.074;3.788;2023-04-28T15:09:26;17.60;99.90
27226;DHT22;14732;51.074;3.788;2023-04-28T15:11:52;17.70;99.90
27226;DHT22;14732;51.074;3.788;2023-04-28T15:14:18;17.80;99.90
27226;DHT22;14732;51.074;3.788;2023-04-28T15:16:44;18.10;99.90
27226;DHT22;14732;51.074;3.788;2023-04-28T15:19:11;18.60;99.90
27226;DHT22;14732;51.074;3.788;2023-04-28T15:21:37;18.70;99.90
27226;DHT22;14732;51.074;3.788;2023-04-28T15:24:03;18.60;99.90
27226;DHT22;14732;51.074;3.788;2023-04-28T15:26:29;18.80;99.90
27226;DHT22;14732;51.074;3.788;2023-04-28T15:28:54;18.90;99.90
27226;DHT22;14732;51.074;3.788;2023-04-28T15:31:20;19.00;99.90
27226;DHT22;14732;51.074;3.788;2023-04-28T15:33:52;18.60;99.90
27226;DHT22;14732;51.074;3.788;2023-04-28T15:36:18;18.40;99.90
27226;DHT22;14732;51.074;3.788;2023-04-28T15:38:48;18.60;99.90
27226;DHT22;14732;51.074;3.788;2023-04-28T15:41:16;18.80;99.90
27226;DHT22;14732;51.074;3.788;2023-04-28T15:43:41;18.60;99.90
27226;DHT22;14732;51.074;3.788;2023-04-28T15:46:08;18.40;99.90
27226;DHT22;14732;51.074;3.788;2023-04-28T15:48:38;18.20;99.90
27226;DHT22;14732;51.074;3.788;2023-04-28T15:51:04;18.10;99.90
27226;DHT22;14732;51.074;3.788;2023-04-28T15:53:30;18.20;99.90
27226;DHT22;14732;51.074;3.788;2023-04-28T15:55:57;18.00;99.90
27226;DHT22;14732;51.074;3.788;2023-04-28T15:58:23;17.80;99.90